sensor_id;sensor_type;location;lat;lon;timestamp;P1;durP1;ratioP1;P2;durP2;ratioP2
24859;SDS011;12936;52.006;4.350;2023-07-20T00:02:15;3.40;;;1.60;;
24859;SDS011;12936;52.006;4.350;2023-07-20T00:04:51;2.95;;;1.60;;
24859;SDS011;12936;52.006;4.350;2023-07-20T00:07:25;3.75;;;2.03;;
24859;SDS011;12936;52.006;4.350;2023-07-20T00:10:19;2.88;;;1.90;;
24859;SDS011;12936;52.006;4.350;2023-07-20T00:12:51;4.38;;;2.13;;
24859;SDS011;12936;52.006;4.350;2023-07-20T00:15:21;3.63;;;1.83;;
24859;SDS011;12936;52.006;4.350;2023-07-20T00:18:13;2.88;;;1.70;;
24859;SDS011;12936;52.006;4.350;2023-07-20T00:20:48;2.83;;;1.70;;
24859;SDS011;12936;52.006;4.350;2023-07-20T00:23:20;5.80;;;1.50;;
24859;SDS011;12936;52.006;4.350;2023-07-20T00:25:52;3.03;;;1.15;;
24859;SDS011;12936;52.006;4.350;2023-07-20T00:28:44;1.65;;;0.90;;
24859;SDS011;12936;52.006;4.350;2023-07-20T00:31:36;2.63;;;0.82;;
24859;SDS011;12936;52.006;4.350;2023-07-20T00:34:09;2.33;;;0.90;;
24859;SDS011;12936;52.006;4.350;2023-07-20T00:36:39;3.17;;;0.70;;
24859;SDS011;12936;52.006;4.350;2023-07-20T00:39:12;1.75;;;0.93;;
24859;SDS011;12936;52.006;4.350;2023-07-20T00:42:02;1.80;;;0.80;;
24859;SDS011;12936;52.006;4.350;2023-07-20T00:44:43;2.35;;;0.68;;
24859;SDS011;12936;52.006;4.350;2023-07-20T00:47:17;2.78;;;0.77;;
24859;SDS011;12936;52.006;4.350;2023-07-20T00:49:54;1.23;;;0.60;;
24859;SDS011;12936;52.006;4.350;2023-07-20T00:52:31;3.45;;;0.70;;
24859;SDS011;12936;52.006;4.350;2023-07-20T00:55:20;1.63;;;0.70;;
24859;SDS011;12936;52.006;4.350;2023-07-20T00:57:50;1.70;;;0.75;;
24859;SDS011;12936;52.006;4.350;2023-07-20T01:00:26;1.45;;;0.65;;
24859;SDS011;12936;52.006;4.350;2023-07-20T01:03:15;3.13;;;0.60;;
24859;SDS011;12936;52.006;4.350;2023-07-20T01:05:51;1.88;;;0.70;;
24859;SDS011;12936;52.006;4.350;2023-07-20T01:08:55;2.17;;;0.82;;
24859;SDS011;12936;52.006;4.350;2023-07-20T01:11:38;1.00;;;0.70;;
24859;SDS011;12936;52.006;4.350;2023-07-20T01:14:36;2.92;;;0.90;;
24859;SDS011;12936;52.006;4.350;2023-07-20T01:17:31;1.65;;;0.80;;
24859;SDS011;12936;52.006;4.350;2023-07-20T01:20:36;2.90;;;0.73;;
24859;SDS011;12936;52.006;4.350;2023-07-20T01:23:34;1.40;;;0.70;;
24859;SDS011;12936;52.006;4.350;2023-07-20T01:26:30;1.75;;;0.75;;
24859;SDS011;12936;52.006;4.350;2023-07-20T01:29:22;1.67;;;0.57;;
24859;SDS011;12936;52.006;4.350;2023-07-20T01:32:06;3.83;;;0.93;;
24859;SDS011;12936;52.006;4.350;2023-07-20T01:34:52;1.30;;;0.50;;
24859;SDS011;12936;52.006;4.350;2023-07-20T01:37:52;2.13;;;0.70;;
24859;SDS011;12936;52.006;4.350;2023-07-20T01:40:27;1.20;;;0.70;;
24859;SDS011;12936;52.006;4.350;2023-07-20T01:42:56;2.70;;;0.63;;
24859;SDS011;12936;52.006;4.350;2023-07-20T01:45:26;0.85;;;0.50;;
24859;SDS011;12936;52.006;4.350;2023-07-20T01:48:01;1.25;;;0.75;;
24859;SDS011;12936;52.006;4.350;2023-07-20T01:50:52;2.88;;;0.60;;
24859;SDS011;12936;52.006;4.350;2023-07-20T01:53:24;1.85;;;0.75;;
24859;SDS011;12936;52.006;4.350;2023-07-20T01:55:57;1.55;;;0.77;;
24859;SDS011;12936;52.006;4.350;2023-07-20T01:58:46;0.77;;;0.43;;
24859;SDS011;12936;52.006;4.350;2023-07-20T02:01:17;3.25;;;0.70;;
24859;SDS011;12936;52.006;4.350;2023-07-20T02:03:59;2.35;;;0.40;;
24859;SDS011;12936;52.006;4.350;2023-07-20T02:07:12;2.45;;;0.60;;
24859;SDS011;12936;52.006;4.350;2023-07-20T02:09:44;1.30;;;0.60;;
24859;SDS011;12936;52.006;4.350;2023-07-20T02:12:15;2.63;;;0.60;;
24859;SDS011;12936;52.006;4.350;2023-07-20T02:14:45;2.38;;;0.80;;
24859;SDS011;12936;52.006;4.350;2023-07-20T02:17:22;2.40;;;0.43;;
24859;SDS011;12936;52.006;4.350;2023-07-20T02:20:45;1.90;;;0.50;;
24859;SDS011;12936;52.006;4.350;2023-07-20T02:23:13;0.70;;;0.60;;
24859;SDS011;12936;52.006;4.350;2023-07-20T02:25:44;0.90;;;0.50;;
24859;SDS011;12936;52.006;4.350;2023-07-20T02:28:18;1.88;;;0.65;;
24859;SDS011;12936;52.006;4.350;2023-07-20T02:31:47;0.90;;;0.55;;
24859;SDS011;12936;52.006;4.350;2023-07-20T02:34:22;2.42;;;0.70;;
24859;SDS011;12936;52.006;4.350;2023-07-20T02:36:57;1.38;;;0.50;;
24859;SDS011;12936;52.006;4.350;2023-07-20T02:39:42;2.05;;;0.70;;
24859;SDS011;12936;52.006;4.350;2023-07-20T02:42:17;1.92;;;0.60;;
24859;SDS011;12936;52.006;4.350;2023-07-20T02:44:57;3.28;;;0.65;;
24859;SDS011;12936;52.006;4.350;2023-07-20T02:47:28;2.03;;;0.60;;
24859;SDS011;12936;52.006;4.350;2023-07-20T02:50:18;1.40;;;0.60;;
24859;SDS011;12936;52.006;4.350;2023-07-20T02:52:55;1.98;;;0.70;;
24859;SDS011;12936;52.006;4.350;2023-07-20T02:55:25;1.60;;;0.60;;
24859;SDS011;12936;52.006;4.350;2023-07-20T02:58:00;1.30;;;0.52;;
24859;SDS011;12936;52.006;4.350;2023-07-20T03:00:30;0.85;;;0.57;;
24859;SDS011;12936;52.006;4.350;2023-07-20T03:03:00;12.05;;;2.08;;
24859;SDS011;12936;52.006;4.350;2023-07-20T03:05:40;2.25;;;1.05;;
24859;SDS011;12936;52.006;4.350;2023-07-20T03:08:19;0.88;;;0.57;;
24859;SDS011;12936;52.006;4.350;2023-07-20T03:10:51;1.33;;;0.73;;
24859;SDS011;12936;52.006;4.350;2023-07-20T03:13:43;1.00;;;0.60;;
24859;SDS011;12936;52.006;4.350;2023-07-20T03:16:14;1.10;;;0.70;;
24859;SDS011;12936;52.006;4.350;2023-07-20T03:18:44;1.55;;;0.60;;
24859;SDS011;12936;52.006;4.350;2023-07-20T03:21:40;2.25;;;0.77;;
24859;SDS011;12936;52.006;4.350;2023-07-20T03:24:12;1.02;;;0.60;;
24859;SDS011;12936;52.006;4.350;2023-07-20T03:26:44;0.57;;;0.57;;
24859;SDS011;12936;52.006;4.350;2023-07-20T03:29:16;5.95;;;0.90;;
24859;SDS011;12936;52.006;4.350;2023-07-20T03:31:46;2.05;;;0.70;;
24859;SDS011;12936;52.006;4.350;2023-07-20T03:34:19;2.10;;;0.68;;
24859;SDS011;12936;52.006;4.350;2023-07-20T03:36:50;0.98;;;0.85;;
24859;SDS011;12936;52.006;4.350;2023-07-20T03:39:23;1.85;;;1.10;;
24859;SDS011;12936;52.006;4.350;2023-07-20T03:42:06;3.13;;;1.10;;
24859;SDS011;12936;52.006;4.350;2023-07-20T03:44:35;1.77;;;1.00;;
24859;SDS011;12936;52.006;4.350;2023-07-20T03:47:45;2.63;;;1.02;;
24859;SDS011;12936;52.006;4.350;2023-07-20T03:50:35;2.15;;;1.40;;
24859;SDS011;12936;52.006;4.350;2023-07-20T03:53:35;2.67;;;1.23;;
24859;SDS011;12936;52.006;4.350;2023-07-20T03:56:26;3.42;;;1.63;;
24859;SDS011;12936;52.006;4.350;2023-07-20T03:59:18;1.70;;;1.60;;
24859;SDS011;12936;52.006;4.350;2023-07-20T04:01:49;5.05;;;1.88;;
24859;SDS011;12936;52.006;4.350;2023-07-20T04:04:26;2.92;;;2.10;;
24859;SDS011;12936;52.006;4.350;2023-07-20T04:07:19;4.00;;;1.80;;
24859;SDS011;12936;52.006;4.350;2023-07-20T04:10:07;7.38;;;2.42;;
24859;SDS011;12936;52.006;4.350;2023-07-20T04:12:40;2.47;;;2.10;;
24859;SDS011;12936;52.006;4.350;2023-07-20T04:15:13;4.00;;;2.00;;
24859;SDS011;12936;52.006;4.350;2023-07-20T04:17:41;3.70;;;2.25;;
24859;SDS011;12936;52.006;4.350;2023-07-20T04:20:10;5.88;;;2.08;;
24859;SDS011;12936;52.006;4.350;2023-07-20T04:22:38;5.63;;;2.25;;
24859;SDS011;12936;52.006;4.350;2023-07-20T04:25:07;4.10;;;2.20;;
24859;SDS011;12936;52.006;4.350;2023-07-20T04:27:37;3.90;;;2.28;;
24859;SDS011;12936;52.006;4.350;2023-07-20T04:30:06;3.55;;;2.08;;
24859;SDS011;12936;52.006;4.350;2023-07-20T04:32:35;2.40;;;2.20;;
24859;SDS011;12936;52.006;4.350;2023-07-20T04:35:05;3.15;;;2.20;;
24859;SDS011;12936;52.006;4.350;2023-07-20T04:37:34;4.25;;;2.20;;
24859;SDS011;12936;52.006;4.350;2023-07-20T04:40:03;6.80;;;2.58;;
24859;SDS011;12936;52.006;4.350;2023-07-20T04:42:32;2.25;;;2.05;;
24859;SDS011;12936;52.006;4.350;2023-07-20T04:45:01;2.60;;;2.30;;
24859;SDS011;12936;52.006;4.350;2023-07-20T04:47:30;4.93;;;2.53;;
24859;SDS011;12936;52.006;4.350;2023-07-20T04:49:58;2.67;;;2.35;;
24859;SDS011;12936;52.006;4.350;2023-07-20T04:52:26;3.03;;;2.15;;
24859;SDS011;12936;52.006;4.350;2023-07-20T04:55:07;2.65;;;2.28;;
24859;SDS011;12936;52.006;4.350;2023-07-20T04:57:36;2.58;;;2.30;;
24859;SDS011;12936;52.006;4.350;2023-07-20T05:00:06;5.70;;;2.60;;
24859;SDS011;12936;52.006;4.350;2023-07-20T05:02:37;5.15;;;2.53;;
24859;SDS011;12936;52.006;4.350;2023-07-20T05:05:05;4.47;;;2.72;;
24859;SDS011;12936;52.006;4.350;2023-07-20T05:07:35;3.65;;;2.70;;
24859;SDS011;12936;52.006;4.350;2023-07-20T05:10:03;3.10;;;2.80;;
24859;SDS011;12936;52.006;4.350;2023-07-20T05:12:32;2.90;;;2.42;;
24859;SDS011;12936;52.006;4.350;2023-07-20T05:15:00;3.95;;;2.72;;
24859;SDS011;12936;52.006;4.350;2023-07-20T05:17:30;5.22;;;2.92;;
24859;SDS011;12936;52.006;4.350;2023-07-20T05:19:58;5.30;;;2.90;;
24859;SDS011;12936;52.006;4.350;2023-07-20T05:22:26;6.40;;;3.10;;
24859;SDS011;12936;52.006;4.350;2023-07-20T05:24:54;5.28;;;2.85;;
24859;SDS011;12936;52.006;4.350;2023-07-20T05:27:22;3.70;;;2.88;;
24859;SDS011;12936;52.006;4.350;2023-07-20T05:29:50;4.63;;;2.90;;
24859;SDS011;12936;52.006;4.350;2023-07-20T05:32:19;2.97;;;2.53;;
24859;SDS011;12936;52.006;4.350;2023-07-20T05:34:50;4.25;;;2.80;;
24859;SDS011;12936;52.006;4.350;2023-07-20T05:37:19;3.22;;;2.75;;
24859;SDS011;12936;52.006;4.350;2023-07-20T05:39:47;3.42;;;2.70;;
24859;SDS011;12936;52.006;4.350;2023-07-20T05:42:15;4.60;;;2.22;;
24859;SDS011;12936;52.006;4.350;2023-07-20T05:44:43;5.53;;;2.47;;
24859;SDS011;12936;52.006;4.350;2023-07-20T05:47:11;3.83;;;2.30;;
24859;SDS011;12936;52.006;4.350;2023-07-20T05:49:39;4.75;;;2.75;;
24859;SDS011;12936;52.006;4.350;2023-07-20T05:52:10;5.65;;;2.25;;
24859;SDS011;12936;52.006;4.350;2023-07-20T05:54:38;4.68;;;2.50;;
24859;SDS011;12936;52.006;4.350;2023-07-20T05:57:06;4.50;;;2.50;;
24859;SDS011;12936;52.006;4.350;2023-07-20T05:59:34;6.60;;;2.08;;
24859;SDS011;12936;52.006;4.350;2023-07-20T06:02:07;3.63;;;2.13;;
24859;SDS011;12936;52.006;4.350;2023-07-20T06:04:35;3.92;;;1.90;;
24859;SDS011;12936;52.006;4.350;2023-07-20T06:07:03;2.97;;;1.75;;
24859;SDS011;12936;52.006;4.350;2023-07-20T06:09:35;3.35;;;1.52;;
24859;SDS011;12936;52.006;4.350;2023-07-20T06:12:04;5.43;;;1.42;;
24859;SDS011;12936;52.006;4.350;2023-07-20T06:14:39;4.90;;;1.17;;
24859;SDS011;12936;52.006;4.350;2023-07-20T06:17:07;4.35;;;1.20;;
24859;SDS011;12936;52.006;4.350;2023-07-20T06:19:35;2.17;;;1.00;;
24859;SDS011;12936;52.006;4.350;2023-07-20T06:22:04;3.00;;;1.02;;
24859;SDS011;12936;52.006;4.350;2023-07-20T06:24:32;3.88;;;0.98;;
24859;SDS011;12936;52.006;4.350;2023-07-20T06:27:03;2.97;;;1.08;;
24859;SDS011;12936;52.006;4.350;2023-07-20T06:29:32;2.60;;;1.00;;
24859;SDS011;12936;52.006;4.350;2023-07-20T06:32:05;1.77;;;1.02;;
24859;SDS011;12936;52.006;4.350;2023-07-20T06:34:35;3.33;;;1.10;;
24859;SDS011;12936;52.006;4.350;2023-07-20T06:37:05;2.08;;;1.00;;
24859;SDS011;12936;52.006;4.350;2023-07-20T06:39:37;2.42;;;1.45;;
24859;SDS011;12936;52.006;4.350;2023-07-20T06:42:09;3.22;;;1.10;;
24859;SDS011;12936;52.006;4.350;2023-07-20T06:44:39;1.05;;;0.90;;
24859;SDS011;12936;52.006;4.350;2023-07-20T06:47:08;2.08;;;0.90;;
24859;SDS011;12936;52.006;4.350;2023-07-20T06:49:36;1.58;;;0.90;;
24859;SDS011;12936;52.006;4.350;2023-07-20T06:52:05;1.40;;;0.77;;
24859;SDS011;12936;52.006;4.350;2023-07-20T06:54:37;2.53;;;1.13;;
24859;SDS011;12936;52.006;4.350;2023-07-20T06:57:10;4.53;;;0.80;;
24859;SDS011;12936;52.006;4.350;2023-07-20T06:59:45;1.65;;;1.00;;
24859;SDS011;12936;52.006;4.350;2023-07-20T07:02:13;2.47;;;1.10;;
24859;SDS011;12936;52.006;4.350;2023-07-20T07:04:41;4.13;;;0.93;;
24859;SDS011;12936;52.006;4.350;2023-07-20T07:07:10;3.30;;;1.20;;
24859;SDS011;12936;52.006;4.350;2023-07-20T07:09:39;4.22;;;1.33;;
24859;SDS011;12936;52.006;4.350;2023-07-20T07:12:08;2.53;;;1.08;;
24859;SDS011;12936;52.006;4.350;2023-07-20T07:14:36;2.38;;;1.00;;
24859;SDS011;12936;52.006;4.350;2023-07-20T07:17:04;2.92;;;1.00;;
24859;SDS011;12936;52.006;4.350;2023-07-20T07:19:33;1.42;;;0.80;;
24859;SDS011;12936;52.006;4.350;2023-07-20T07:22:02;4.05;;;0.82;;
24859;SDS011;12936;52.006;4.350;2023-07-20T07:24:31;3.85;;;0.98;;
24859;SDS011;12936;52.006;4.350;2023-07-20T07:27:02;2.53;;;0.75;;
24859;SDS011;12936;52.006;4.350;2023-07-20T07:29:30;2.17;;;0.82;;
24859;SDS011;12936;52.006;4.350;2023-07-20T07:31:59;1.02;;;0.70;;
24859;SDS011;12936;52.006;4.350;2023-07-20T07:34:29;2.58;;;0.82;;
24859;SDS011;12936;52.006;4.350;2023-07-20T07:37:01;4.70;;;1.20;;
24859;SDS011;12936;52.006;4.350;2023-07-20T07:39:29;1.67;;;0.90;;
24859;SDS011;12936;52.006;4.350;2023-07-20T07:42:02;2.97;;;0.90;;
24859;SDS011;12936;52.006;4.350;2023-07-20T07:44:32;3.25;;;0.70;;
24859;SDS011;12936;52.006;4.350;2023-07-20T07:47:00;1.33;;;0.70;;
24859;SDS011;12936;52.006;4.350;2023-07-20T07:49:28;1.77;;;0.73;;
24859;SDS011;12936;52.006;4.350;2023-07-20T07:51:59;2.60;;;0.85;;
24859;SDS011;12936;52.006;4.350;2023-07-20T07:54:28;2.08;;;0.82;;
24859;SDS011;12936;52.006;4.350;2023-07-20T07:56:56;3.90;;;1.20;;
24859;SDS011;12936;52.006;4.350;2023-07-20T07:59:26;1.33;;;0.70;;
24859;SDS011;12936;52.006;4.350;2023-07-20T08:01:54;0.95;;;0.60;;
24859;SDS011;12936;52.006;4.350;2023-07-20T08:04:23;0.77;;;0.75;;
24859;SDS011;12936;52.006;4.350;2023-07-20T08:06:51;0.65;;;0.60;;
24859;SDS011;12936;52.006;4.350;2023-07-20T08:09:21;2.58;;;0.60;;
24859;SDS011;12936;52.006;4.350;2023-07-20T08:11:49;0.75;;;0.50;;
24859;SDS011;12936;52.006;4.350;2023-07-20T08:14:17;1.25;;;0.80;;
24859;SDS011;12936;52.006;4.350;2023-07-20T08:16:49;1.05;;;0.80;;
24859;SDS011;12936;52.006;4.350;2023-07-20T08:19:18;0.70;;;0.50;;
24859;SDS011;12936;52.006;4.350;2023-07-20T08:21:47;0.65;;;0.50;;
24859;SDS011;12936;52.006;4.350;2023-07-20T08:24:15;1.00;;;0.60;;
24859;SDS011;12936;52.006;4.350;2023-07-20T08:26:43;2.13;;;0.50;;
24859;SDS011;12936;52.006;4.350;2023-07-20T08:29:14;1.13;;;0.73;;
24859;SDS011;12936;52.006;4.350;2023-07-20T08:31:43;0.60;;;0.50;;
24859;SDS011;12936;52.006;4.350;2023-07-20T08:34:13;2.58;;;0.50;;
24859;SDS011;12936;52.006;4.350;2023-07-20T08:36:56;2.50;;;0.73;;
24859;SDS011;12936;52.006;4.350;2023-07-20T08:39:25;1.70;;;0.60;;
24859;SDS011;12936;52.006;4.350;2023-07-20T08:41:53;1.85;;;0.63;;
24859;SDS011;12936;52.006;4.350;2023-07-20T08:44:22;1.33;;;0.52;;
24859;SDS011;12936;52.006;4.350;2023-07-20T08:46:51;2.28;;;0.50;;
24859;SDS011;12936;52.006;4.350;2023-07-20T08:49:23;1.00;;;0.43;;
24859;SDS011;12936;52.006;4.350;2023-07-20T08:51:51;3.72;;;1.05;;
24859;SDS011;12936;52.006;4.350;2023-07-20T08:54:20;0.80;;;0.60;;
24859;SDS011;12936;52.006;4.350;2023-07-20T08:56:48;1.35;;;0.70;;
24859;SDS011;12936;52.006;4.350;2023-07-20T08:59:17;1.00;;;0.55;;
24859;SDS011;12936;52.006;4.350;2023-07-20T09:01:46;2.22;;;0.57;;
24859;SDS011;12936;52.006;4.350;2023-07-20T09:04:15;1.13;;;0.50;;
24859;SDS011;12936;52.006;4.350;2023-07-20T09:06:45;1.38;;;0.60;;
24859;SDS011;12936;52.006;4.350;2023-07-20T09:09:14;1.60;;;0.50;;
24859;SDS011;12936;52.006;4.350;2023-07-20T09:11:42;2.50;;;0.60;;
24859;SDS011;12936;52.006;4.350;2023-07-20T09:14:11;1.83;;;0.60;;
24859;SDS011;12936;52.006;4.350;2023-07-20T09:16:46;0.82;;;0.40;;
24859;SDS011;12936;52.006;4.350;2023-07-20T09:19:16;1.48;;;0.55;;
24859;SDS011;12936;52.006;4.350;2023-07-20T09:21:48;2.05;;;0.50;;
24859;SDS011;12936;52.006;4.350;2023-07-20T09:24:18;1.20;;;0.60;;
24859;SDS011;12936;52.006;4.350;2023-07-20T09:26:47;2.58;;;0.50;;
24859;SDS011;12936;52.006;4.350;2023-07-20T09:29:17;1.20;;;0.47;;
24859;SDS011;12936;52.006;4.350;2023-07-20T09:31:58;0.55;;;0.40;;
24859;SDS011;12936;52.006;4.350;2023-07-20T09:34:29;1.20;;;0.47;;
24859;SDS011;12936;52.006;4.350;2023-07-20T09:37:02;2.15;;;0.50;;
24859;SDS011;12936;52.006;4.350;2023-07-20T09:39:31;1.15;;;0.60;;
24859;SDS011;12936;52.006;4.350;2023-07-20T09:42:00;1.60;;;0.60;;
24859;SDS011;12936;52.006;4.350;2023-07-20T09:44:34;1.35;;;0.50;;
24859;SDS011;12936;52.006;4.350;2023-07-20T09:47:05;0.85;;;0.47;;
24859;SDS011;12936;52.006;4.350;2023-07-20T09:49:37;1.27;;;0.63;;
24859;SDS011;12936;52.006;4.350;2023-07-20T09:52:16;1.42;;;0.47;;
24859;SDS011;12936;52.006;4.350;2023-07-20T09:55:06;0.50;;;0.45;;
24859;SDS011;12936;52.006;4.350;2023-07-20T09:57:35;1.40;;;0.40;;
24859;SDS011;12936;52.006;4.350;2023-07-20T10:00:04;0.75;;;0.52;;
24859;SDS011;12936;52.006;4.350;2023-07-20T10:02:42;1.02;;;0.68;;
24859;SDS011;12936;52.006;4.350;2023-07-20T10:05:12;1.80;;;0.68;;
24859;SDS011;12936;52.006;4.350;2023-07-20T10:07:45;0.90;;;0.40;;
24859;SDS011;12936;52.006;4.350;2023-07-20T10:10:17;2.22;;;0.70;;
24859;SDS011;12936;52.006;4.350;2023-07-20T10:12:47;2.33;;;0.65;;
24859;SDS011;12936;52.006;4.350;2023-07-20T10:15:18;2.13;;;0.50;;
24859;SDS011;12936;52.006;4.350;2023-07-20T10:17:55;2.95;;;0.70;;
24859;SDS011;12936;52.006;4.350;2023-07-20T10:20:46;1.63;;;0.50;;
24859;SDS011;12936;52.006;4.350;2023-07-20T10:23:21;2.75;;;0.70;;
24859;SDS011;12936;52.006;4.350;2023-07-20T10:25:50;3.85;;;1.00;;
24859;SDS011;12936;52.006;4.350;2023-07-20T10:28:18;3.28;;;0.73;;
24859;SDS011;12936;52.006;4.350;2023-07-20T10:30:49;4.22;;;0.85;;
24859;SDS011;12936;52.006;4.350;2023-07-20T10:33:18;0.63;;;0.50;;
24859;SDS011;12936;52.006;4.350;2023-07-20T10:35:52;1.73;;;0.70;;
24859;SDS011;12936;52.006;4.350;2023-07-20T10:41:18;1.52;;;0.70;;
24859;SDS011;12936;52.006;4.350;2023-07-20T10:43:47;2.53;;;0.98;;
24859;SDS011;12936;52.006;4.350;2023-07-20T10:49:17;1.15;;;0.52;;
24859;SDS011;12936;52.006;4.350;2023-07-20T10:51:56;0.60;;;0.55;;
24859;SDS011;12936;52.006;4.350;2023-07-20T10:57:22;1.00;;;0.65;;
24859;SDS011;12936;52.006;4.350;2023-07-20T10:59:51;0.80;;;0.50;;
24859;SDS011;12936;52.006;4.350;2023-07-20T11:02:41;0.73;;;0.60;;
24859;SDS011;12936;52.006;4.350;2023-07-20T11:08:00;2.38;;;0.80;;
24859;SDS011;12936;52.006;4.350;2023-07-20T11:10:32;0.43;;;0.35;;
24859;SDS011;12936;52.006;4.350;2023-07-20T11:13:15;2.15;;;0.70;;
24859;SDS011;12936;52.006;4.350;2023-07-20T11:15:48;2.42;;;0.80;;
24859;SDS011;12936;52.006;4.350;2023-07-20T11:18:28;1.92;;;0.68;;
24859;SDS011;12936;52.006;4.350;2023-07-20T11:20:58;1.85;;;0.70;;
24859;SDS011;12936;52.006;4.350;2023-07-20T11:23:26;1.70;;;0.60;;
24859;SDS011;12936;52.006;4.350;2023-07-20T11:25:56;1.77;;;0.60;;
24859;SDS011;12936;52.006;4.350;2023-07-20T11:28:25;1.30;;;0.68;;
24859;SDS011;12936;52.006;4.350;2023-07-20T11:30:57;2.15;;;0.70;;
24859;SDS011;12936;52.006;4.350;2023-07-20T11:33:27;1.48;;;0.63;;
24859;SDS011;12936;52.006;4.350;2023-07-20T11:35:57;0.85;;;0.50;;
24859;SDS011;12936;52.006;4.350;2023-07-20T11:38:25;2.30;;;0.52;;
24859;SDS011;12936;52.006;4.350;2023-07-20T11:40:53;0.88;;;0.50;;
24859;SDS011;12936;52.006;4.350;2023-07-20T11:43:23;1.15;;;0.50;;
24859;SDS011;12936;52.006;4.350;2023-07-20T11:45:52;3.30;;;0.70;;
24859;SDS011;12936;52.006;4.350;2023-07-20T11:48:21;1.30;;;0.55;;
24859;SDS011;12936;52.006;4.350;2023-07-20T11:50:49;1.17;;;0.80;;
24859;SDS011;12936;52.006;4.350;2023-07-20T11:53:17;0.77;;;0.50;;
24859;SDS011;12936;52.006;4.350;2023-07-20T11:55:46;1.40;;;0.60;;
24859;SDS011;12936;52.006;4.350;2023-07-20T11:58:14;1.08;;;0.47;;
24859;SDS011;12936;52.006;4.350;2023-07-20T12:00:44;1.02;;;0.65;;
24859;SDS011;12936;52.006;4.350;2023-07-20T12:03:13;0.82;;;0.50;;
24859;SDS011;12936;52.006;4.350;2023-07-20T12:05:41;1.98;;;0.52;;
24859;SDS011;12936;52.006;4.350;2023-07-20T12:08:26;0.93;;;0.60;;
24859;SDS011;12936;52.006;4.350;2023-07-20T12:10:56;0.70;;;0.60;;
24859;SDS011;12936;52.006;4.350;2023-07-20T12:13:34;1.38;;;0.60;;
24859;SDS011;12936;52.006;4.350;2023-07-20T12:16:10;1.95;;;0.50;;
24859;SDS011;12936;52.006;4.350;2023-07-20T12:18:40;1.52;;;0.57;;
24859;SDS011;12936;52.006;4.350;2023-07-20T12:21:09;3.60;;;0.45;;
24859;SDS011;12936;52.006;4.350;2023-07-20T12:23:38;1.67;;;0.60;;
24859;SDS011;12936;52.006;4.350;2023-07-20T12:26:07;2.53;;;0.52;;
24859;SDS011;12936;52.006;4.350;2023-07-20T12:28:39;1.15;;;0.47;;
24859;SDS011;12936;52.006;4.350;2023-07-20T12:31:08;2.03;;;0.70;;
24859;SDS011;12936;52.006;4.350;2023-07-20T12:33:40;1.35;;;0.43;;
24859;SDS011;12936;52.006;4.350;2023-07-20T12:36:08;2.40;;;0.70;;
24859;SDS011;12936;52.006;4.350;2023-07-20T12:38:36;2.08;;;0.60;;
24859;SDS011;12936;52.006;4.350;2023-07-20T12:41:05;1.20;;;0.50;;
24859;SDS011;12936;52.006;4.350;2023-07-20T12:43:33;1.50;;;0.60;;
24859;SDS011;12936;52.006;4.350;2023-07-20T12:46:01;1.10;;;0.50;;
24859;SDS011;12936;52.006;4.350;2023-07-20T12:48:30;0.80;;;0.50;;
24859;SDS011;12936;52.006;4.350;2023-07-20T12:50:59;1.65;;;0.55;;
24859;SDS011;12936;52.006;4.350;2023-07-20T12:53:27;1.92;;;0.50;;
24859;SDS011;12936;52.006;4.350;2023-07-20T12:55:55;1.95;;;0.68;;
24859;SDS011;12936;52.006;4.350;2023-07-20T12:58:23;1.15;;;0.52;;
24859;SDS011;12936;52.006;4.350;2023-07-20T13:00:51;1.55;;;0.57;;
24859;SDS011;12936;52.006;4.350;2023-07-20T13:03:20;1.05;;;0.60;;
24859;SDS011;12936;52.006;4.350;2023-07-20T13:05:52;1.25;;;0.50;;
24859;SDS011;12936;52.006;4.350;2023-07-20T13:08:23;0.85;;;0.45;;
24859;SDS011;12936;52.006;4.350;2023-07-20T13:10:53;2.45;;;0.50;;
24859;SDS011;12936;52.006;4.350;2023-07-20T13:13:21;0.88;;;0.50;;
24859;SDS011;12936;52.006;4.350;2023-07-20T13:15:49;3.53;;;0.60;;
24859;SDS011;12936;52.006;4.350;2023-07-20T13:18:17;0.77;;;0.40;;
24859;SDS011;12936;52.006;4.350;2023-07-20T13:20:45;0.93;;;0.38;;
24859;SDS011;12936;52.006;4.350;2023-07-20T13:23:15;1.40;;;0.50;;
24859;SDS011;12936;52.006;4.350;2023-07-20T13:25:43;0.68;;;0.40;;
24859;SDS011;12936;52.006;4.350;2023-07-20T13:28:11;1.13;;;0.60;;
24859;SDS011;12936;52.006;4.350;2023-07-20T13:30:39;0.73;;;0.50;;
24859;SDS011;12936;52.006;4.350;2023-07-20T13:33:07;1.83;;;0.65;;
24859;SDS011;12936;52.006;4.350;2023-07-20T13:35:43;0.88;;;0.40;;
24859;SDS011;12936;52.006;4.350;2023-07-20T13:38:15;3.25;;;0.50;;
24859;SDS011;12936;52.006;4.350;2023-07-20T13:40:43;1.40;;;0.50;;
24859;SDS011;12936;52.006;4.350;2023-07-20T13:43:11;1.25;;;0.68;;
24859;SDS011;12936;52.006;4.350;2023-07-20T13:45:39;2.72;;;0.45;;
24859;SDS011;12936;52.006;4.350;2023-07-20T13:48:08;1.05;;;0.40;;
24859;SDS011;12936;52.006;4.350;2023-07-20T13:50:36;0.80;;;0.40;;
24859;SDS011;12936;52.006;4.350;2023-07-20T13:53:07;1.70;;;0.60;;
24859;SDS011;12936;52.006;4.350;2023-07-20T13:55:39;1.33;;;0.40;;
24859;SDS011;12936;52.006;4.350;2023-07-20T13:58:10;1.30;;;0.40;;
24859;SDS011;12936;52.006;4.350;2023-07-20T14:00:39;0.55;;;0.45;;
24859;SDS011;12936;52.006;4.350;2023-07-20T14:03:07;1.70;;;0.35;;
24859;SDS011;12936;52.006;4.350;2023-07-20T14:05:41;2.22;;;0.40;;
24859;SDS011;12936;52.006;4.350;2023-07-20T14:08:12;1.48;;;0.40;;
24859;SDS011;12936;52.006;4.350;2023-07-20T14:10:45;1.55;;;0.45;;
24859;SDS011;12936;52.006;4.350;2023-07-20T14:13:16;0.68;;;0.35;;
24859;SDS011;12936;52.006;4.350;2023-07-20T14:15:56;0.73;;;0.45;;
24859;SDS011;12936;52.006;4.350;2023-07-20T14:18:24;1.85;;;0.38;;
24859;SDS011;12936;52.006;4.350;2023-07-20T14:20:52;0.68;;;0.40;;
24859;SDS011;12936;52.006;4.350;2023-07-20T14:23:20;0.90;;;0.30;;
24859;SDS011;12936;52.006;4.350;2023-07-20T14:25:53;0.88;;;0.40;;
24859;SDS011;12936;52.006;4.350;2023-07-20T14:28:25;3.00;;;0.43;;
24859;SDS011;12936;52.006;4.350;2023-07-20T14:30:53;1.17;;;0.40;;
24859;SDS011;12936;52.006;4.350;2023-07-20T14:33:21;0.77;;;0.40;;
24859;SDS011;12936;52.006;4.350;2023-07-20T14:35:49;1.65;;;0.30;;
24859;SDS011;12936;52.006;4.350;2023-07-20T14:38:17;0.73;;;0.30;;
24859;SDS011;12936;52.006;4.350;2023-07-20T14:40:45;0.30;;;0.20;;
24859;SDS011;12936;52.006;4.350;2023-07-20T14:43:19;0.30;;;0.30;;
24859;SDS011;12936;52.006;4.350;2023-07-20T14:45:50;0.73;;;0.50;;
24859;SDS011;12936;52.006;4.350;2023-07-20T14:48:18;0.70;;;0.50;;
24859;SDS011;12936;52.006;4.350;2023-07-20T14:50:46;1.73;;;0.50;;
24859;SDS011;12936;52.006;4.350;2023-07-20T14:53:14;0.70;;;0.47;;
24859;SDS011;12936;52.006;4.350;2023-07-20T14:55:44;0.90;;;0.40;;
24859;SDS011;12936;52.006;4.350;2023-07-20T14:58:12;1.95;;;0.40;;
24859;SDS011;12936;52.006;4.350;2023-07-20T15:00:41;0.90;;;0.50;;
24859;SDS011;12936;52.006;4.350;2023-07-20T15:03:10;1.02;;;0.45;;
24859;SDS011;12936;52.006;4.350;2023-07-20T15:05:39;1.92;;;0.50;;
24859;SDS011;12936;52.006;4.350;2023-07-20T15:08:08;0.70;;;0.40;;
24859;SDS011;12936;52.006;4.350;2023-07-20T15:10:37;2.15;;;0.70;;
24859;SDS011;12936;52.006;4.350;2023-07-20T15:13:08;0.98;;;0.30;;
24859;SDS011;12936;52.006;4.350;2023-07-20T15:15:37;0.73;;;0.50;;
24859;SDS011;12936;52.006;4.350;2023-07-20T15:18:07;0.68;;;0.32;;
24859;SDS011;12936;52.006;4.350;2023-07-20T15:20:35;0.68;;;0.38;;
24859;SDS011;12936;52.006;4.350;2023-07-20T15:23:03;0.90;;;0.50;;
24859;SDS011;12936;52.006;4.350;2023-07-20T15:25:32;0.85;;;0.40;;
24859;SDS011;12936;52.006;4.350;2023-07-20T15:28:00;1.20;;;0.50;;
24859;SDS011;12936;52.006;4.350;2023-07-20T15:30:28;2.05;;;0.40;;
24859;SDS011;12936;52.006;4.350;2023-07-20T15:32:59;1.35;;;0.70;;
24859;SDS011;12936;52.006;4.350;2023-07-20T15:35:31;0.82;;;0.40;;